sensor_id;sensor_type;location;lat;lon;timestamp;pressure;altitude;pressure_sealevel;temperature;humidity
77855;BME280;67046;50.088;14.336;2023-06-24T00:00:25;98130.42;;;15.83;80.88
77855;BME280;67046;50.088;14.336;2023-06-24T00:01:17;98123.05;;;15.81;81.32
77855;BME280;67046;50.088;14.336;2023-06-24T00:01:49;98130.68;;;15.80;81.16
77855;BME280;67046;50.088;14.336;2023-06-24T00:02:21;98128.39;;;15.80;81.06
77855;BME280;67046;50.088;14.336;2023-06-24T00:02:55;98128.27;;;15.80;81.18
77855;BME280;67046;50.088;14.336;2023-06-24T00:03:27;98131.21;;;15.80;81.30
77855;BME280;67046;50.088;14.336;2023-06-24T00:03:59;98130.57;;;15.81;81.22
77855;BME280;67046;50.088;14.336;2023-06-24T00:04:31;98129.63;;;15.82;81.47
77855;BME280;67046;50.088;14.336;2023-06-24T00:05:04;98130.27;;;15.83;81.75
77855;BME280;67046;50.088;14.336;2023-06-24T00:05:38;98129.85;;;15.85;81.51
77855;BME280;67046;50.088;14.336;2023-06-24T00:06:10;98132.41;;;15.86;81.52
77855;BME280;67046;50.088;14.336;2023-06-24T00:06:42;98126.70;;;15.86;81.27
77855;BME280;67046;50.088;14.336;2023-06-24T00:07:14;98126.47;;;15.88;81.43
77855;BME280;67046;50.088;14.336;2023-06-24T00:07:46;98124.27;;;15.88;81.44
77855;BME280;67046;50.088;14.336;2023-06-24T00:08:19;98129.55;;;15.90;81.35
77855;BME280;67046;50.088;14.336;2023-06-24T00:08:52;98124.94;;;15.91;81.45
77855;BME280;67046;50.088;14.336;2023-06-24T00:09:31;98124.55;;;15.92;81.51
77855;BME280;67046;50.088;14.336;2023-06-24T00:10:04;98123.29;;;15.92;81.24
77855;BME280;67046;50.088;14.336;2023-06-24T00:10:38;98121.95;;;15.93;81.31
77855;BME280;67046;50.088;14.336;2023-06-24T00:11:11;98127.52;;;15.94;81.20
77855;BME280;67046;50.088;14.336;2023-06-24T00:11:43;98125.28;;;15.94;81.26
77855;BME280;67046;50.088;14.336;2023-06-24T00:12:15;98117.11;;;15.95;81.38
77855;BME280;67046;50.088;14.336;2023-06-24T00:12:50;98118.98;;;15.95;81.48
77855;BME280;67046;50.088;14.336;2023-06-24T00:13:22;98122.23;;;15.95;81.38
77855;BME280;67046;50.088;14.336;2023-06-24T00:13:54;98119.58;;;15.94;81.31
77855;BME280;67046;50.088;14.336;2023-06-24T00:14:26;98120.89;;;15.92;81.08
77855;BME280;67046;50.088;14.336;2023-06-24T00:14:58;98122.38;;;15.90;81.38
77855;BME280;67046;50.088;14.336;2023-06-24T00:15:30;98122.20;;;15.89;81.46
77855;BME280;67046;50.088;14.336;2023-06-24T00:16:02;98120.64;;;15.89;81.40
77855;BME280;67046;50.088;14.336;2023-06-24T00:16:34;98124.39;;;15.90;81.45
77855;BME280;67046;50.088;14.336;2023-06-24T00:17:07;98122.52;;;15.88;81.25
77855;BME280;67046;50.088;14.336;2023-06-24T00:17:39;98120.48;;;15.87;81.31
77855;BME280;67046;50.088;14.336;2023-06-24T00:18:12;98123.13;;;15.85;81.40
77855;BME280;67046;50.088;14.336;2023-06-24T00:18:44;98125.95;;;15.84;81.32
77855;BME280;67046;50.088;14.336;2023-06-24T00:19:18;98124.51;;;15.84;81.43
77855;BME280;67046;50.088;14.336;2023-06-24T00:19:50;98117.95;;;15.84;81.50
77855;BME280;67046;50.088;14.336;2023-06-24T00:20:26;98121.10;;;15.84;81.58
77855;BME280;67046;50.088;14.336;2023-06-24T00:20:58;98118.39;;;15.84;81.56
77855;BME280;67046;50.088;14.336;2023-06-24T00:21:30;98122.02;;;15.85;81.37
77855;BME280;67046;50.088;14.336;2023-06-24T00:22:03;98116.90;;;15.85;81.52
77855;BME280;67046;50.088;14.336;2023-06-24T00:22:38;98116.84;;;15.85;81.62
77855;BME280;67046;50.088;14.336;2023-06-24T00:23:17;98118.73;;;15.86;81.57
77855;BME280;67046;50.088;14.336;2023-06-24T00:23:52;98117.44;;;15.86;81.36
77855;BME280;67046;50.088;14.336;2023-06-24T00:24:24;98117.86;;;15.85;81.36
77855;BME280;67046;50.088;14.336;2023-06-24T00:24:57;98115.95;;;15.85;81.57
77855;BME280;67046;50.088;14.336;2023-06-24T00:25:29;98119.15;;;15.85;81.50
77855;BME280;67046;50.088;14.336;2023-06-24T00:26:02;98116.52;;;15.85;81.58
77855;BME280;67046;50.088;14.336;2023-06-24T00:26:34;98120.95;;;15.85;81.48
77855;BME280;67046;50.088;14.336;2023-06-24T00:27:06;98119.61;;;15.84;81.39
77855;BME280;67046;50.088;14.336;2023-06-24T00:27:38;98124.15;;;15.85;81.75
77855;BME280;67046;50.088;14.336;2023-06-24T00:28:10;98121.91;;;15.85;81.51
77855;BME280;67046;50.088;14.336;2023-06-24T00:28:42;98120.31;;;15.85;81.57
77855;BME280;67046;50.088;14.336;2023-06-24T00:29:14;98123.19;;;15.84;81.47
77855;BME280;67046;50.088;14.336;2023-06-24T00:29:47;98124.36;;;15.85;81.52
77855;BME280;67046;50.088;14.336;2023-06-24T00:30:18;98125.80;;;15.86;81.40
77855;BME280;67046;50.088;14.336;2023-06-24T00:30:50;98127.84;;;15.87;81.45
77855;BME280;67046;50.088;14.336;2023-06-24T00:31:22;98126.89;;;15.88;81.38
77855;BME280;67046;50.088;14.336;2023-06-24T00:31:54;98126.41;;;15.87;81.38
77855;BME280;67046;50.088;14.336;2023-06-24T00:32:27;98129.92;;;15.87;81.45
77855;BME280;67046;50.088;14.336;2023-06-24T00:32:59;98130.19;;;15.87;81.30
77855;BME280;67046;50.088;14.336;2023-06-24T00:33:31;98132.96;;;15.87;81.36
77855;BME280;67046;50.088;14.336;2023-06-24T00:34:07;98130.52;;;15.88;81.21
77855;BME280;67046;50.088;14.336;2023-06-24T00:34:39;98136.23;;;15.88;81.33
77855;BME280;67046;50.088;14.336;2023-06-24T00:35:15;98137.40;;;15.88;81.45
77855;BME280;67046;50.088;14.336;2023-06-24T00:35:47;98134.77;;;15.88;81.40
77855;BME280;67046;50.088;14.336;2023-06-24T00:36:20;98132.30;;;15.91;81.67
77855;BME280;67046;50.088;14.336;2023-06-24T00:36:52;98133.34;;;15.89;81.41
77855;BME280;67046;50.088;14.336;2023-06-24T00:37:24;98130.14;;;15.88;81.66
77855;BME280;67046;50.088;14.336;2023-06-24T00:37:56;98133.98;;;15.89;81.56
77855;BME280;67046;50.088;14.336;2023-06-24T00:38:29;98134.14;;;15.89;81.42
77855;BME280;67046;50.088;14.336;2023-06-24T00:39:04;98136.54;;;15.90;81.35
77855;BME280;67046;50.088;14.336;2023-06-24T00:39:41;98138.89;;;15.89;81.56
77855;BME280;67046;50.088;14.336;2023-06-24T00:40:13;98138.89;;;15.89;81.41
77855;BME280;67046;50.088;14.336;2023-06-24T00:40:48;98140.74;;;15.88;81.24
77855;BME280;67046;50.088;14.336;2023-06-24T00:41:20;98141.55;;;15.87;81.42
77855;BME280;67046;50.088;14.336;2023-06-24T00:41:52;98142.20;;;15.84;81.60
77855;BME280;67046;50.088;14.336;2023-06-24T00:42:24;98148.27;;;15.83;81.31
77855;BME280;67046;50.088;14.336;2023-06-24T00:42:56;98147.48;;;15.83;81.64
77855;BME280;67046;50.088;14.336;2023-06-24T00:43:28;98146.20;;;15.82;81.45
77855;BME280;67046;50.088;14.336;2023-06-24T00:44:01;98147.42;;;15.82;81.53
77855;BME280;67046;50.088;14.336;2023-06-24T00:44:33;98146.14;;;15.80;81.65
77855;BME280;67046;50.088;14.336;2023-06-24T00:45:06;98145.48;;;15.78;81.74
77855;BME280;67046;50.088;14.336;2023-06-24T00:45:38;98150.32;;;15.77;81.51
77855;BME280;67046;50.088;14.336;2023-06-24T00:46:11;98146.12;;;15.78;81.83
77855;BME280;67046;50.088;14.336;2023-06-24T00:46:43;98148.84;;;15.79;81.62
77855;BME280;67046;50.088;14.336;2023-06-24T00:47:15;98153.21;;;15.79;81.76
77855;BME280;67046;50.088;14.336;2023-06-24T00:47:47;98154.45;;;15.80;81.66
77855;BME280;67046;50.088;14.336;2023-06-24T00:48:20;98148.32;;;15.81;81.63
77855;BME280;67046;50.088;14.336;2023-06-24T00:48:56;98153.86;;;15.80;81.60
77855;BME280;67046;50.088;14.336;2023-06-24T00:49:28;98151.36;;;15.81;81.70
77855;BME280;67046;50.088;14.336;2023-06-24T00:50:00;98153.45;;;15.81;81.58
77855;BME280;67046;50.088;14.336;2023-06-24T00:50:32;98154.99;;;15.81;81.52
77855;BME280;67046;50.088;14.336;2023-06-24T00:51:04;98157.11;;;15.80;81.57
77855;BME280;67046;50.088;14.336;2023-06-24T00:51:36;98156.68;;;15.80;81.62
77855;BME280;67046;50.088;14.336;2023-06-24T00:52:08;98157.11;;;15.79;81.26
77855;BME280;67046;50.088;14.336;2023-06-24T00:52:41;98157.22;;;15.80;81.35
77855;BME280;67046;50.088;14.336;2023-06-24T00:53:15;98162.08;;;15.80;81.61
77855;BME280;67046;50.088;14.336;2023-06-24T00:53:47;98162.18;;;15.81;81.35
77855;BME280;67046;50.088;14.336;2023-06-24T00:54:21;98160.05;;;15.82;81.61
77855;BME280;67046;50.088;14.336;2023-06-24T00:54:53;98163.36;;;15.83;81.71
77855;BME280;67046;50.088;14.336;2023-06-24T00:55:27;98159.64;;;15.84;81.52
77855;BME280;67046;50.088;14.336;2023-06-24T00:56:00;98164.02;;;15.85;81.71
77855;BME280;67046;50.088;14.336;2023-06-24T00:56:34;98162.46;;;15.84;81.63
77855;BME280;67046;50.088;14.336;2023-06-24T00:57:10;98159.15;;;15.84;81.50
77855;BME280;67046;50.088;14.336;2023-06-24T00:57:47;98160.96;;;15.84;81.31
77855;BME280;67046;50.088;14.336;2023-06-24T00:58:23;98156.45;;;15.84;81.49
77855;BME280;67046;50.088;14.336;2023-06-24T00:58:59;98160.56;;;15.85;81.48
77855;BME280;67046;50.088;14.336;2023-06-24T00:59:36;98159.81;;;15.86;81.52
77855;BME280;67046;50.088;14.336;2023-06-24T01:00:10;98157.73;;;15.87;81.38
77855;BME280;67046;50.088;14.336;2023-06-24T01:00:47;98157.38;;;15.87;81.63
77855;BME280;67046;50.088;14.336;2023-06-24T01:01:30;98157.67;;;15.84;81.66
77855;BME280;67046;50.088;14.336;2023-06-24T01:02:05;98154.85;;;15.84;81.48
77855;BME280;67046;50.088;14.336;2023-06-24T01:02:37;98157.34;;;15.84;81.28
77855;BME280;67046;50.088;14.336;2023-06-24T01:03:10;98159.44;;;15.85;81.51
77855;BME280;67046;50.088;14.336;2023-06-24T01:03:46;98154.91;;;15.85;81.36
77855;BME280;67046;50.088;14.336;2023-06-24T01:04:18;98156.46;;;15.85;81.38
77855;BME280;67046;50.088;14.336;2023-06-24T01:04:51;98160.52;;;15.85;81.14
77855;BME280;67046;50.088;14.336;2023-06-24T01:05:24;98160.18;;;15.84;81.07
77855;BME280;67046;50.088;14.336;2023-06-24T01:05:57;98159.65;;;15.84;81.08
77855;BME280;67046;50.088;14.336;2023-06-24T01:06:29;98157.42;;;15.85;81.23
77855;BME280;67046;50.088;14.336;2023-06-24T01:07:01;98160.38;;;15.83;81.32
77855;BME280;67046;50.088;14.336;2023-06-24T01:07:35;98161.17;;;15.83;81.38
77855;BME280;67046;50.088;14.336;2023-06-24T01:08:08;98160.16;;;15.83;81.53
77855;BME280;67046;50.088;14.336;2023-06-24T01:08:41;98162.35;;;15.84;81.48
77855;BME280;67046;50.088;14.336;2023-06-24T01:09:13;98162.09;;;15.83;81.25
77855;BME280;67046;50.088;14.336;2023-06-24T01:09:45;98161.66;;;15.84;81.18
77855;BME280;67046;50.088;14.336;2023-06-24T01:10:17;98159.96;;;15.84;81.17
77855;BME280;67046;50.088;14.336;2023-06-24T01:10:50;98162.27;;;15.85;81.35
77855;BME280;67046;50.088;14.336;2023-06-24T01:11:26;98162.37;;;15.85;81.24
77855;BME280;67046;50.088;14.336;2023-06-24T01:11:58;98159.34;;;15.86;81.44
77855;BME280;67046;50.088;14.336;2023-06-24T01:12:30;98155.98;;;15.87;81.34
77855;BME280;67046;50.088;14.336;2023-06-24T01:13:02;98153.66;;;15.88;81.42
77855;BME280;67046;50.088;14.336;2023-06-24T01:13:34;98155.79;;;15.89;81.35
77855;BME280;67046;50.088;14.336;2023-06-24T01:14:06;98156.80;;;15.89;81.26
77855;BME280;67046;50.088;14.336;2023-06-24T01:14:38;98156.05;;;15.89;81.20
77855;BME280;67046;50.088;14.336;2023-06-24T01:15:11;98152.83;;;15.91;81.58
77855;BME280;67046;50.088;14.336;2023-06-24T01:15:44;98156.02;;;15.92;81.51
77855;BME280;67046;50.088;14.336;2023-06-24T01:17:16;98154.36;;;15.92;81.31
77855;BME280;67046;50.088;14.336;2023-06-24T01:18:53;98148.61;;;15.92;81.36
77855;BME280;67046;50.088;14.336;2023-06-24T01:21:39;98151.89;;;15.89;81.67
77855;BME280;67046;50.088;14.336;2023-06-24T01:22:59;98149.11;;;15.89;81.59
77855;BME280;67046;50.088;14.336;2023-06-24T01:23:50;98148.57;;;15.86;81.54
77855;BME280;67046;50.088;14.336;2023-06-24T01:25:02;98146.69;;;15.84;81.52
77855;BME280;67046;50.088;14.336;2023-06-24T01:26:11;98149.13;;;15.82;81.71
77855;BME280;67046;50.088;14.336;2023-06-24T01:28:20;98141.47;;;15.77;81.58
77855;BME280;67046;50.088;14.336;2023-06-24T01:32:06;98137.43;;;15.73;81.90
77855;BME280;67046;50.088;14.336;2023-06-24T01:32:50;98137.06;;;15.73;82.05
77855;BME280;67046;50.088;14.336;2023-06-24T01:33:28;98136.02;;;15.74;82.10
77855;BME280;67046;50.088;14.336;2023-06-24T01:34:59;98136.71;;;15.75;82.03
77855;BME280;67046;50.088;14.336;2023-06-24T01:35:33;98136.48;;;15.72;81.79
77855;BME280;67046;50.088;14.336;2023-06-24T01:36:11;98139.46;;;15.71;82.11
77855;BME280;67046;50.088;14.336;2023-06-24T01:37:10;98137.59;;;15.72;81.89
77855;BME280;67046;50.088;14.336;2023-06-24T01:37:45;98136.64;;;15.71;82.11
77855;BME280;67046;50.088;14.336;2023-06-24T01:38:23;98134.96;;;15.69;82.02
77855;BME280;67046;50.088;14.336;2023-06-24T01:39:02;98135.60;;;15.70;81.97
77855;BME280;67046;50.088;14.336;2023-06-24T01:39:40;98131.03;;;15.71;82.14
77855;BME280;67046;50.088;14.336;2023-06-24T01:40:36;98133.86;;;15.72;82.29
77855;BME280;67046;50.088;14.336;2023-06-24T01:41:13;98132.15;;;15.72;82.16
77855;BME280;67046;50.088;14.336;2023-06-24T01:41:56;98130.29;;;15.73;82.14
77855;BME280;67046;50.088;14.336;2023-06-24T01:42:31;98133.25;;;15.74;82.24
77855;BME280;67046;50.088;14.336;2023-06-24T01:43:06;98130.05;;;15.75;82.34
77855;BME280;67046;50.088;14.336;2023-06-24T01:43:42;98127.88;;;15.77;82.03
77855;BME280;67046;50.088;14.336;2023-06-24T01:44:16;98131.56;;;15.79;81.93
77855;BME280;67046;50.088;14.336;2023-06-24T01:44:50;98127.48;;;15.80;81.78
77855;BME280;67046;50.088;14.336;2023-06-24T01:45:25;98125.88;;;15.81;81.77
77855;BME280;67046;50.088;14.336;2023-06-24T01:45:58;98129.45;;;15.82;81.81
77855;BME280;67046;50.088;14.336;2023-06-24T01:46:30;98127.27;;;15.83;81.95
77855;BME280;67046;50.088;14.336;2023-06-24T01:47:05;98128.40;;;15.84;81.86
77855;BME280;67046;50.088;14.336;2023-06-24T01:47:40;98130.86;;;15.84;81.92
77855;BME280;67046;50.088;14.336;2023-06-24T01:48:22;98133.95;;;15.86;81.73
77855;BME280;67046;50.088;14.336;2023-06-24T01:48:59;98131.41;;;15.87;81.74
77855;BME280;67046;50.088;14.336;2023-06-24T01:49:33;98135.69;;;15.88;81.56
77855;BME280;67046;50.088;14.336;2023-06-24T01:50:10;98135.73;;;15.89;81.92
77855;BME280;67046;50.088;14.336;2023-06-24T01:50:51;98133.12;;;15.88;81.50
77855;BME280;67046;50.088;14.336;2023-06-24T01:51:27;98138.84;;;15.90;81.70
77855;BME280;67046;50.088;14.336;2023-06-24T01:52:01;98143.07;;;15.92;81.38
77855;BME280;67046;50.088;14.336;2023-06-24T01:52:35;98134.70;;;15.93;81.60
77855;BME280;67046;50.088;14.336;2023-06-24T01:53:07;98136.96;;;15.94;81.52
77855;BME280;67046;50.088;14.336;2023-06-24T01:53:44;98136.16;;;15.94;81.60
77855;BME280;67046;50.088;14.336;2023-06-24T01:54:20;98140.63;;;15.94;81.42
77855;BME280;67046;50.088;14.336;2023-06-24T01:54:55;98139.40;;;15.95;81.48
77855;BME280;67046;50.088;14.336;2023-06-24T01:55:29;98138.55;;;15.95;81.48
77855;BME280;67046;50.088;14.336;2023-06-24T01:56:02;98139.79;;;15.97;81.55
77855;BME280;67046;50.088;14.336;2023-06-24T01:56:35;98139.64;;;15.98;81.53
77855;BME280;67046;50.088;14.336;2023-06-24T01:57:11;98139.49;;;15.99;81.61
77855;BME280;67046;50.088;14.336;2023-06-24T01:57:45;98140.98;;;16.00;81.57
77855;BME280;67046;50.088;14.336;2023-06-24T01:58:19;98142.11;;;16.00;81.27
77855;BME280;67046;50.088;14.336;2023-06-24T01:58:55;98143.02;;;16.01;81.30
77855;BME280;67046;50.088;14.336;2023-06-24T01:59:29;98143.23;;;16.02;81.41
77855;BME280;67046;50.088;14.336;2023-06-24T02:00:02;98143.23;;;16.03;81.57
77855;BME280;67046;50.088;14.336;2023-06-24T02:00:38;98145.02;;;16.05;81.53
77855;BME280;67046;50.088;14.336;2023-06-24T02:01:12;98145.45;;;16.07;81.68
77855;BME280;67046;50.088;14.336;2023-06-24T02:01:45;98147.48;;;16.07;81.61
77855;BME280;67046;50.088;14.336;2023-06-24T02:02:18;98145.46;;;16.09;81.36
77855;BME280;67046;50.088;14.336;2023-06-24T02:02:53;98145.27;;;16.10;81.46
77855;BME280;67046;50.088;14.336;2023-06-24T02:03:27;98149.45;;;16.13;81.34
77855;BME280;67046;50.088;14.336;2023-06-24T02:04:01;98153.23;;;16.14;81.26
77855;BME280;67046;50.088;14.336;2023-06-24T02:04:35;98151.48;;;16.15;81.15
77855;BME280;67046;50.088;14.336;2023-06-24T02:05:08;98153.08;;;16.16;81.09
77855;BME280;67046;50.088;14.336;2023-06-24T02:05:41;98151.86;;;16.17;81.25
77855;BME280;67046;50.088;14.336;2023-06-24T02:06:14;98153.73;;;16.18;81.11
77855;BME280;67046;50.088;14.336;2023-06-24T02:06:49;98156.14;;;16.18;80.94
77855;BME280;67046;50.088;14.336;2023-06-24T02:07:23;98153.42;;;16.18;80.94
77855;BME280;67046;50.088;14.336;2023-06-24T02:07:58;98154.87;;;16.18;80.83
77855;BME280;67046;50.088;14.336;2023-06-24T02:08:32;98156.73;;;16.19;80.81
77855;BME280;67046;50.088;14.336;2023-06-24T02:09:06;98159.77;;;16.19;80.87
77855;BME280;67046;50.088;14.336;2023-06-24T02:09:40;98155.19;;;16.19;80.93
77855;BME280;67046;50.088;14.336;2023-06-24T02:10:15;98159.83;;;16.20;80.74
77855;BME280;67046;50.088;14.336;2023-06-24T02:10:49;98156.48;;;16.21;80.87
77855;BME280;67046;50.088;14.336;2023-06-24T02:11:23;98158.23;;;16.21;80.80
77855;BME280;67046;50.088;14.336;2023-06-24T02:12:01;98160.05;;;16.21;80.80
77855;BME280;67046;50.088;14.336;2023-06-24T02:12:35;98159.09;;;16.22;80.93
77855;BME280;67046;50.088;14.336;2023-06-24T02:13:09;98159.30;;;16.21;80.99
77855;BME280;67046;50.088;14.336;2023-06-24T02:13:42;98160.20;;;16.22;81.07
77855;BME280;67046;50.088;14.336;2023-06-24T02:14:15;98164.34;;;16.24;81.28
77855;BME280;67046;50.088;14.336;2023-06-24T02:14:49;98161.09;;;16.25;81.08
77855;BME280;67046;50.088;14.336;2023-06-24T02:15:22;98160.45;;;16.25;80.79
77855;BME280;67046;50.088;14.336;2023-06-24T02:15:55;98163.70;;;16.26;80.76
77855;BME280;67046;50.088;14.336;2023-06-24T02:16:29;98164.25;;;16.28;80.62
77855;BME280;67046;50.088;14.336;2023-06-24T02:17:03;98163.98;;;16.28;80.74
77855;BME280;67046;50.088;14.336;2023-06-24T02:17:37;98163.77;;;16.28;80.60
77855;BME280;67046;50.088;14.336;2023-06-24T02:18:11;98163.88;;;16.28;80.56
77855;BME280;67046;50.088;14.336;2023-06-24T02:18:47;98166.16;;;16.28;80.30
77855;BME280;67046;50.088;14.336;2023-06-24T02:19:20;98165.31;;;16.28;80.77
77855;BME280;67046;50.088;14.336;2023-06-24T02:19:53;98167.93;;;16.28;80.58
77855;BME280;67046;50.088;14.336;2023-06-24T02:20:27;98166.85;;;16.29;80.63
77855;BME280;67046;50.088;14.336;2023-06-24T02:21:01;98167.71;;;16.28;80.40
77855;BME280;67046;50.088;14.336;2023-06-24T02:21:34;98168.72;;;16.28;80.40
77855;BME280;67046;50.088;14.336;2023-06-24T02:22:07;98166.15;;;16.28;80.48
77855;BME280;67046;50.088;14.336;2023-06-24T02:22:41;98167.29;;;16.27;80.37
77855;BME280;67046;50.088;14.336;2023-06-24T02:23:16;98167.12;;;16.28;80.35
77855;BME280;67046;50.088;14.336;2023-06-24T02:23:48;98167.18;;;16.28;80.44
77855;BME280;67046;50.088;14.336;2023-06-24T02:24:21;98167.29;;;16.28;80.28
77855;BME280;67046;50.088;14.336;2023-06-24T02:24:54;98170.91;;;16.29;80.38
77855;BME280;67046;50.088;14.336;2023-06-24T02:25:27;98169.74;;;16.30;80.39
77855;BME280;67046;50.088;14.336;2023-06-24T02:26:00;98171.98;;;16.30;80.30
77855;BME280;67046;50.088;14.336;2023-06-24T02:26:34;98172.80;;;16.30;80.07
77855;BME280;67046;50.088;14.336;2023-06-24T02:27:08;98178.55;;;16.31;80.12
77855;BME280;67046;50.088;14.336;2023-06-24T02:27:40;98177.38;;;16.32;80.12
77855;BME280;67046;50.088;14.336;2023-06-24T02:28:12;98177.98;;;16.34;80.20
77855;BME280;67046;50.088;14.336;2023-06-24T02:28:44;98180.28;;;16.33;80.33
77855;BME280;67046;50.088;14.336;2023-06-24T02:29:18;98184.54;;;16.33;80.21
77855;BME280;67046;50.088;14.336;2023-06-24T02:29:52;98182.77;;;16.34;80.34
77855;BME280;67046;50.088;14.336;2023-06-24T02:30:24;98184.23;;;16.33;80.27
77855;BME280;67046;50.088;14.336;2023-06-24T02:30:56;98183.20;;;16.34;79.93
77855;BME280;67046;50.088;14.336;2023-06-24T02:31:29;98183.52;;;16.31;79.84
77855;BME280;67046;50.088;14.336;2023-06-24T02:32:01;98183.63;;;16.31;79.83
77855;BME280;67046;50.088;14.336;2023-06-24T02:32:33;98185.81;;;16.31;80.03
77855;BME280;67046;50.088;14.336;2023-06-24T02:33:08;98186.02;;;16.31;80.16
77855;BME280;67046;50.088;14.336;2023-06-24T02:33:41;98189.81;;;16.32;80.09
77855;BME280;67046;50.088;14.336;2023-06-24T02:34:15;98189.02;;;16.32;79.87
77855;BME280;67046;50.088;14.336;2023-06-24T02:34:47;98189.98;;;16.34;80.09
77855;BME280;67046;50.088;14.336;2023-06-24T02:35:19;98184.87;;;16.34;80.10
77855;BME280;67046;50.088;14.336;2023-06-24T02:35:51;98186.21;;;16.35;79.99
77855;BME280;67046;50.088;14.336;2023-06-24T02:36:23;98186.82;;;16.36;79.91
77855;BME280;67046;50.088;14.336;2023-06-24T02:36:55;98185.10;;;16.36;80.10
77855;BME280;67046;50.088;14.336;2023-06-24T02:37:27;98184.30;;;16.37;80.26
77855;BME280;67046;50.088;14.336;2023-06-24T02:37:59;98181.20;;;16.38;80.12
77855;BME280;67046;50.088;14.336;2023-06-24T02:38:31;98183.98;;;16.38;80.16
77855;BME280;67046;50.088;14.336;2023-06-24T02:39:03;98183.60;;;16.38;80.17
77855;BME280;67046;50.088;14.336;2023-06-24T02:39:35;98181.64;;;16.38;80.20
77855;BME280;67046;50.088;14.336;2023-06-24T02:40:10;98183.40;;;16.38;80.27
77855;BME280;67046;50.088;14.336;2023-06-24T02:40:45;98183.20;;;16.38;80.18
77855;BME280;67046;50.088;14.336;2023-06-24T02:41:17;98179.41;;;16.39;80.22
77855;BME280;67046;50.088;14.336;2023-06-24T02:41:49;98177.11;;;16.40;80.34
77855;BME280;67046;50.088;14.336;2023-06-24T02:42:21;98176.41;;;16.41;80.25
77855;BME280;67046;50.088;14.336;2023-06-24T02:42:53;98178.55;;;16.39;80.21
77855;BME280;67046;50.088;14.336;2023-06-24T02:43:24;98176.61;;;16.37;80.17
77855;BME280;67046;50.088;14.336;2023-06-24T02:43:56;98178.91;;;16.37;79.94
77855;BME280;67046;50.088;14.336;2023-06-24T02:44:28;98180.73;;;16.37;80.02
77855;BME280;67046;50.088;14.336;2023-06-24T02:45:01;98178.86;;;16.36;80.01
77855;BME280;67046;50.088;14.336;2023-06-24T02:45:34;98179.98;;;16.36;79.93
77855;BME280;67046;50.088;14.336;2023-06-24T02:46:07;98181.48;;;16.36;79.92
77855;BME280;67046;50.088;14.336;2023-06-24T02:46:42;98178.80;;;16.36;79.93
77855;BME280;67046;50.088;14.336;2023-06-24T02:47:16;98178.38;;;16.35;79.78
77855;BME280;67046;50.088;14.336;2023-06-24T02:47:50;98180.66;;;16.35;79.88
77855;BME280;67046;50.088;14.336;2023-06-24T02:48:22;98181.20;;;16.35;79.90
77855;BME280;67046;50.088;14.336;2023-06-24T02:48:56;98181.25;;;16.35;79.84
77855;BME280;67046;50.088;14.336;2023-06-24T02:49:28;98182.27;;;16.35;79.58
77855;BME280;67046;50.088;14.336;2023-06-24T02:50:03;98182.80;;;16.35;79.73
77855;BME280;67046;50.088;14.336;2023-06-24T02:50:37;98180.61;;;16.36;79.80
77855;BME280;67046;50.088;14.336;2023-06-24T02:51:12;98184.30;;;16.36;79.76
77855;BME280;67046;50.088;14.336;2023-06-24T02:51:44;98179.50;;;16.36;79.67
77855;BME280;67046;50.088;14.336;2023-06-24T02:52:17;98182.41;;;16.35;79.68
77855;BME280;67046;50.088;14.336;2023-06-24T02:52:49;98186.56;;;16.34;79.82
77855;BME280;67046;50.088;14.336;2023-06-24T02:53:22;98187.64;;;16.32;79.61
77855;BME280;67046;50.088;14.336;2023-06-24T02:53:55;98185.55;;;16.32;79.88
77855;BME280;67046;50.088;14.336;2023-06-24T02:54:29;98190.30;;;16.32;79.90
77855;BME280;67046;50.088;14.336;2023-06-24T02:55:02;98189.83;;;16.32;79.67
77855;BME280;67046;50.088;14.336;2023-06-24T02:55:34;98195.63;;;16.32;79.84
77855;BME280;67046;50.088;14.336;2023-06-24T02:56:07;98195.42;;;16.32;79.61
77855;BME280;67046;50.088;14.336;2023-06-24T02:56:40;98197.60;;;16.30;79.66
77855;BME280;67046;50.088;14.336;2023-06-24T02:57:13;98195.40;;;16.29;79.70
77855;BME280;67046;50.088;14.336;2023-06-24T02:57:47;98199.41;;;16.30;79.70
77855;BME280;67046;50.088;14.336;2023-06-24T02:58:20;98199.69;;;16.30;79.55
77855;BME280;67046;50.088;14.336;2023-06-24T02:58:53;98198.83;;;16.31;79.69
77855;BME280;67046;50.088;14.336;2023-06-24T02:59:25;98200.22;;;16.32;79.49
77855;BME280;67046;50.088;14.336;2023-06-24T02:59:57;98203.21;;;16.34;79.75
77855;BME280;67046;50.088;14.336;2023-06-24T03:00:29;98203.42;;;16.32;79.74
77855;BME280;67046;50.088;14.336;2023-06-24T03:01:05;98207.23;;;16.33;79.70
77855;BME280;67046;50.088;14.336;2023-06-24T03:01:40;98204.02;;;16.34;79.74
77855;BME280;67046;50.088;14.336;2023-06-24T03:02:17;98208.77;;;16.35;79.48
77855;BME280;67046;50.088;14.336;2023-06-24T03:02:50;98210.07;;;16.36;79.42
77855;BME280;67046;50.088;14.336;2023-06-24T03:03:21;98208.46;;;16.37;79.51
77855;BME280;67046;50.088;14.336;2023-06-24T03:03:54;98207.95;;;16.37;79.44
77855;BME280;67046;50.088;14.336;2023-06-24T03:04:28;98211.20;;;16.40;79.31
77855;BME280;67046;50.088;14.336;2023-06-24T03:05:00;98210.61;;;16.40;79.50
77855;BME280;67046;50.088;14.336;2023-06-24T03:05:35;98213.63;;;16.41;79.63
77855;BME280;67046;50.088;14.336;2023-06-24T03:06:07;98216.19;;;16.42;79.43
77855;BME280;67046;50.088;14.336;2023-06-24T03:06:44;98219.44;;;16.43;79.20
77855;BME280;67046;50.088;14.336;2023-06-24T03:07:17;98220.89;;;16.44;79.40
77855;BME280;67046;50.088;14.336;2023-06-24T03:07:52;98221.86;;;16.45;79.33
77855;BME280;67046;50.088;14.336;2023-06-24T03:08:24;98219.67;;;16.46;79.35
77855;BME280;67046;50.088;14.336;2023-06-24T03:08:58;98220.26;;;16.46;79.41